sensor_id;sensor_type;location;lat;lon;timestamp;pressure;altitude;pressure_sealevel;temperature;humidity
53758;BME280;39674;59.860;30.672;2022-11-15T01:01:36;101413.19;;;-0.15;100.00
53758;BME280;39674;59.860;30.672;2022-11-15T01:10:06;101246.75;;;-1.02;100.00
53758;BME280;39674;59.860;30.672;2022-11-15T01:13:43;101296.16;;;-0.69;100.00
53758;BME280;39674;59.860;30.672;2022-11-15T01:17:32;101328.28;;;-0.44;100.00
53758;BME280;39674;59.860;30.672;2022-11-15T01:57:16;101196.66;;;-0.87;100.00
53758;BME280;39674;59.860;30.672;2022-11-15T02:00:33;101281.59;;;-0.33;100.00
53758;BME280;39674;59.860;30.672;2022-11-15T02:03:36;101250.41;;;-0.50;100.00
53758;BME280;39674;59.860;30.672;2022-11-15T02:06:35;101239.16;;;-0.54;100.00
53758;BME280;39674;59.860;30.672;2022-11-15T02:09:24;101233.94;;;-0.54;100.00
53758;BME280;39674;59.860;30.672;2022-11-15T02:12:18;101271.22;;;-0.25;100.00
53758;BME280;39674;59.860;30.672;2022-11-15T02:15:10;101227.03;;;-0.50;100.00
53758;BME280;39674;59.860;30.672;2022-11-15T02:18:12;101213.19;;;-0.54;100.00
53758;BME280;39674;59.860;30.672;2022-11-15T02:21:18;101219.25;;;-0.45;100.00
53758;BME280;39674;59.860;30.672;2022-11-15T02:31:10;101242.69;;;-0.14;100.00
53758;BME280;39674;59.860;30.672;2022-11-15T02:34:12;101171.66;;;-0.60;100.00
53758;BME280;39674;59.860;30.672;2022-11-15T02:37:21;101176.84;;;-0.44;100.00
53758;BME280;39674;59.860;30.672;2022-11-15T02:40:20;101149.19;;;-0.56;100.00
53758;BME280;39674;59.860;30.672;2022-11-15T02:43:17;101128.41;;;-0.66;100.00
53758;BME280;39674;59.860;30.672;2022-11-15T02:46:35;101218.47;;;-0.07;100.00
53758;BME280;39674;59.860;30.672;2022-11-15T02:49:46;101220.19;;;-0.09;100.00
53758;BME280;39674;59.860;30.672;2022-11-15T02:52:35;101079.06;;;-0.87;100.00
53758;BME280;39674;59.860;30.672;2022-11-15T02:55:31;101214.97;;;-0.06;100.00
53758;BME280;39674;59.860;30.672;2022-11-15T02:58:41;101122.38;;;-0.52;100.00
53758;BME280;39674;59.860;30.672;2022-11-15T03:01:46;101150.94;;;-0.35;100.00
53758;BME280;39674;59.860;30.672;2022-11-15T03:04:44;101088.59;;;-0.75;100.00
53758;BME280;39674;59.860;30.672;2022-11-15T03:07:42;101163.03;;;-0.25;100.00
53758;BME280;39674;59.860;30.672;2022-11-15T03:10:45;101124.13;;;-0.46;100.00
53758;BME280;39674;59.860;30.672;2022-11-15T03:13:52;101167.38;;;-0.13;100.00
53758;BME280;39674;59.860;30.672;2022-11-15T03:16:47;101111.13;;;-0.46;100.00
53758;BME280;39674;59.860;30.672;2022-11-15T03:19:43;101163.03;;;-0.12;100.00
53758;BME280;39674;59.860;30.672;2022-11-15T03:22:33;101153.53;;;-0.13;100.00
53758;BME280;39674;59.860;30.672;2022-11-15T03:25:24;101153.53;;;-0.12;100.00
53758;BME280;39674;59.860;30.672;2022-11-15T03:28:20;101105.94;;;-0.37;100.00
53758;BME280;39674;59.860;30.672;2022-11-15T03:31:09;101148.31;;;-0.09;100.00
53758;BME280;39674;59.860;30.672;2022-11-15T03:34:19;101138.81;;;-0.13;100.00
53758;BME280;39674;59.860;30.672;2022-11-15T03:37:07;101076.53;;;-0.49;100.00
53758;BME280;39674;59.860;30.672;2022-11-15T03:39:57;101057.50;;;-0.58;100.00
53758;BME280;39674;59.860;30.672;2022-11-15T03:42:49;101067.88;;;-0.51;100.00
53758;BME280;39674;59.860;30.672;2022-11-15T03:45:47;101080.00;;;-0.34;100.00
53758;BME280;39674;59.860;30.672;2022-11-15T03:48:40;101133.63;;;-0.02;100.00
53758;BME280;39674;59.860;30.672;2022-11-15T03:51:31;101073.06;;;-0.35;100.00
53758;BME280;39674;59.860;30.672;2022-11-15T03:54:18;101111.09;;;-0.12;100.00
53758;BME280;39674;59.860;30.672;2022-11-15T03:57:05;101124.09;;;-0.05;100.00
53758;BME280;39674;59.860;30.672;2022-11-15T03:59:53;101120.63;;;-0.05;100.00
53758;BME280;39674;59.860;30.672;2022-11-15T04:02:40;101118.88;;;-0.06;100.00
53758;BME280;39674;59.860;30.672;2022-11-15T04:05:27;101120.63;;;-0.07;100.00
53758;BME280;39674;59.860;30.672;2022-11-15T04:08:16;101096.44;;;-0.20;100.00
53758;BME280;39674;59.860;30.672;2022-11-15T04:11:03;101097.28;;;-0.18;100.00
53758;BME280;39674;59.860;30.672;2022-11-15T04:13:51;101056.63;;;-0.42;100.00
53758;BME280;39674;59.860;30.672;2022-11-15T04:16:38;101108.53;;;-0.11;100.00
53758;BME280;39674;59.860;30.672;2022-11-15T04:19:25;101105.94;;;-0.09;100.00
53758;BME280;39674;59.860;30.672;2022-11-15T04:22:29;101092.09;;;-0.21;100.00
53758;BME280;39674;59.860;30.672;2022-11-15T04:25:35;101087.75;;;-0.15;100.00
53758;BME280;39674;59.860;30.672;2022-11-15T04:28:22;101049.72;;;-0.37;100.00
53758;BME280;39674;59.860;30.672;2022-11-15T04:31:10;101038.44;;;-0.43;100.00
53758;BME280;39674;59.860;30.672;2022-11-15T04:33:57;101091.22;;;-0.13;100.00
53758;BME280;39674;59.860;30.672;2022-11-15T04:36:48;101043.66;;;-0.40;100.00
53758;BME280;39674;59.860;30.672;2022-11-15T04:39:56;100977.94;;;-0.73;100.00
53758;BME280;39674;59.860;30.672;2022-11-15T04:42:55;101032.41;;;-0.39;100.00
53758;BME280;39674;59.860;30.672;2022-11-15T04:45:47;101079.97;;;-0.15;100.00
53758;BME280;39674;59.860;30.672;2022-11-15T04:48:36;100944.22;;;-0.93;100.00
53758;BME280;39674;59.860;30.672;2022-11-15T04:51:26;101040.19;;;-0.39;100.00
53758;BME280;39674;59.860;30.672;2022-11-15T04:54:21;100974.47;;;-0.75;100.00
53758;BME280;39674;59.860;30.672;2022-11-15T04:57:16;101085.13;;;-0.12;100.00
53758;BME280;39674;59.860;30.672;2022-11-15T05:00:15;100915.69;;;-1.04;100.00
53758;BME280;39674;59.860;30.672;2022-11-15T05:03:11;100955.47;;;-0.81;100.00
53758;BME280;39674;59.860;30.672;2022-11-15T05:06:18;101064.38;;;-0.15;100.00
53758;BME280;39674;59.860;30.672;2022-11-15T05:09:08;100963.22;;;-0.77;100.00
53758;BME280;39674;59.860;30.672;2022-11-15T05:12:02;101071.31;;;-0.14;100.00
53758;BME280;39674;59.860;30.672;2022-11-15T05:14:55;101045.34;;;-0.24;100.00
53758;BME280;39674;59.860;30.672;2022-11-15T05:17:49;101001.28;;;-0.55;100.00
53758;BME280;39674;59.860;30.672;2022-11-15T05:20:38;100964.13;;;-0.72;100.00
53758;BME280;39674;59.860;30.672;2022-11-15T05:23:29;100932.16;;;-0.88;100.00
53758;BME280;39674;59.860;30.672;2022-11-15T05:26:30;101055.75;;;-0.14;100.00
53758;BME280;39674;59.860;30.672;2022-11-15T05:29:19;101061.81;;;-0.17;100.00
53758;BME280;39674;59.860;30.672;2022-11-15T05:32:18;101002.13;;;-0.56;100.00
53758;BME280;39674;59.860;30.672;2022-11-15T05:35:30;101021.16;;;-0.41;100.00
53758;BME280;39674;59.860;30.672;2022-11-15T05:38:32;100988.31;;;-0.61;100.00
53758;BME280;39674;59.860;30.672;2022-11-15T05:41:38;100943.38;;;-0.94;100.00
53758;BME280;39674;59.860;30.672;2022-11-15T05:44:32;100938.16;;;-0.91;100.00
53758;BME280;39674;59.860;30.672;2022-11-15T05:47:27;101025.47;;;-0.43;100.00
53758;BME280;39674;59.860;30.672;2022-11-15T05:50:23;100996.94;;;-0.46;100.00
53758;BME280;39674;59.860;30.672;2022-11-15T05:53:14;100979.69;;;-0.66;100.00
53758;BME280;39674;59.860;30.672;2022-11-15T05:56:12;101049.69;;;-0.21;100.00
53758;BME280;39674;59.860;30.672;2022-11-15T05:59:10;100956.34;;;-0.77;100.00
53758;BME280;39674;59.860;30.672;2022-11-15T06:02:05;101076.50;;;-0.14;100.00
53758;BME280;39674;59.860;30.672;2022-11-15T06:05:08;101008.19;;;-0.44;100.00
53758;BME280;39674;59.860;30.672;2022-11-15T06:08:04;100936.44;;;-0.89;100.00
53758;BME280;39674;59.860;30.672;2022-11-15T06:11:06;100981.38;;;-0.62;100.00
53758;BME280;39674;59.860;30.672;2022-11-15T06:13:57;100926.94;;;-0.91;100.00
53758;BME280;39674;59.860;30.672;2022-11-15T06:16:50;100931.28;;;-0.95;100.00
53758;BME280;39674;59.860;30.672;2022-11-15T06:19:42;100977.94;;;-0.64;100.00
53758;BME280;39674;59.860;30.672;2022-11-15T06:22:32;101008.19;;;-0.47;100.00
53758;BME280;39674;59.860;30.672;2022-11-15T06:25:23;100927.78;;;-0.91;100.00
53758;BME280;39674;59.860;30.672;2022-11-15T06:28:46;100931.28;;;-0.92;100.00
53758;BME280;39674;59.860;30.672;2022-11-15T06:31:45;100918.31;;;-0.98;100.00
53758;BME280;39674;59.860;30.672;2022-11-15T06:34:42;100982.25;;;-0.61;100.00
53758;BME280;39674;59.860;30.672;2022-11-15T06:37:48;100994.38;;;-0.57;100.00
53758;BME280;39674;59.860;30.672;2022-11-15T06:41:03;100933.00;;;-0.94;100.00
53758;BME280;39674;59.860;30.672;2022-11-15T06:44:08;101069.59;;;-0.15;100.00
53758;BME280;39674;59.860;30.672;2022-11-15T06:47:21;101002.13;;;-0.50;100.00
53758;BME280;39674;59.860;30.672;2022-11-15T06:50:18;101012.50;;;-0.50;100.00
53758;BME280;39674;59.860;30.672;2022-11-15T06:53:06;101059.22;;;-0.17;100.00
53758;BME280;39674;59.860;30.672;2022-11-15T06:56:00;100922.63;;;-0.97;100.00
53758;BME280;39674;59.860;30.672;2022-11-15T06:59:01;101072.16;;;-0.14;100.00
53758;BME280;39674;59.860;30.672;2022-11-15T07:01:52;101050.53;;;-0.24;100.00
53758;BME280;39674;59.860;30.672;2022-11-15T07:04:42;100969.28;;;-0.75;100.00
53758;BME280;39674;59.860;30.672;2022-11-15T07:07:31;101053.13;;;-0.22;100.00
53758;BME280;39674;59.860;30.672;2022-11-15T07:10:27;101004.72;;;-0.48;100.00
53758;BME280;39674;59.860;30.672;2022-11-15T07:13:21;101005.56;;;-0.44;100.00
53758;BME280;39674;59.860;30.672;2022-11-15T07:16:29;101003.88;;;-0.49;100.00
53758;BME280;39674;59.860;30.672;2022-11-15T07:19:22;100946.84;;;-0.86;100.00
53758;BME280;39674;59.860;30.672;2022-11-15T07:22:26;100996.94;;;-0.51;100.00
53758;BME280;39674;59.860;30.672;2022-11-15T07:25:57;101008.19;;;-0.41;100.00
53758;BME280;39674;59.860;30.672;2022-11-15T07:28:47;101064.38;;;-0.14;100.00
53758;BME280;39674;59.860;30.672;2022-11-15T07:31:51;101037.59;;;-0.31;100.00
53758;BME280;39674;59.860;30.672;2022-11-15T07:34:50;101064.38;;;-0.12;100.00
53758;BME280;39674;59.860;30.672;2022-11-15T07:37:57;100981.38;;;-0.65;100.00
53758;BME280;39674;59.860;30.672;2022-11-15T07:41:02;101064.38;;;-0.15;100.00
53758;BME280;39674;59.860;30.672;2022-11-15T07:43:53;101015.97;;;-0.41;100.00
53758;BME280;39674;59.860;30.672;2022-11-15T07:46:52;100988.31;;;-0.61;100.00
53758;BME280;39674;59.860;30.672;2022-11-15T07:49:48;101062.66;;;-0.13;100.00
53758;BME280;39674;59.860;30.672;2022-11-15T07:52:41;100950.28;;;-0.81;100.00
53758;BME280;39674;59.860;30.672;2022-11-15T07:55:40;101007.34;;;-0.46;100.00
53758;BME280;39674;59.860;30.672;2022-11-15T07:58:33;101071.28;;;-0.05;100.00
53758;BME280;39674;59.860;30.672;2022-11-15T08:01:28;101077.34;;;-0.03;100.00
53758;BME280;39674;59.860;30.672;2022-11-15T08:04:27;100986.59;;;-0.57;100.00
53758;BME280;39674;59.860;30.672;2022-11-15T08:07:30;101034.13;;;-0.24;100.00
53758;BME280;39674;59.860;30.672;2022-11-15T08:10:33;100999.53;;;-0.50;100.00
53758;BME280;39674;59.860;30.672;2022-11-15T08:13:29;101035.84;;;-0.25;100.00
53758;BME280;39674;59.860;30.672;2022-11-15T08:16:50;101036.69;;;-0.26;100.00
53758;BME280;39674;59.860;30.672;2022-11-15T08:19:42;101003.84;;;-0.45;100.00
53758;BME280;39674;59.860;30.672;2022-11-15T08:22:39;100950.28;;;-0.82;100.00
53758;BME280;39674;59.860;30.672;2022-11-15T08:25:40;101002.16;;;-0.53;100.00
53758;BME280;39674;59.860;30.672;2022-11-15T08:28:34;101043.63;;;-0.31;100.00
53758;BME280;39674;59.860;30.672;2022-11-15T08:31:27;101033.25;;;-0.37;100.00
53758;BME280;39674;59.860;30.672;2022-11-15T08:34:29;101029.78;;;-0.35;100.00
53758;BME280;39674;59.860;30.672;2022-11-15T08:37:23;101012.53;;;-0.46;100.00
53758;BME280;39674;59.860;30.672;2022-11-15T08:40:24;101033.28;;;-0.34;100.00
53758;BME280;39674;59.860;30.672;2022-11-15T08:43:23;101094.66;;;-0.01;100.00
53758;BME280;39674;59.860;30.672;2022-11-15T08:46:22;100981.41;;;-0.68;100.00
53758;BME280;39674;59.860;30.672;2022-11-15T08:49:13;101039.31;;;-0.32;100.00
53758;BME280;39674;59.860;30.672;2022-11-15T08:52:10;101021.16;;;-0.44;100.00
53758;BME280;39674;59.860;30.672;2022-11-15T08:55:01;101054.00;;;-0.25;100.00
53758;BME280;39674;59.860;30.672;2022-11-15T08:58:00;101048.81;;;-0.22;100.00
53758;BME280;39674;59.860;30.672;2022-11-15T09:00:53;101012.50;;;-0.43;100.00
53758;BME280;39674;59.860;30.672;2022-11-15T09:03:48;101047.94;;;-0.16;100.00
53758;BME280;39674;59.860;30.672;2022-11-15T09:06:45;100984.84;;;-0.54;100.00
53758;BME280;39674;59.860;30.672;2022-11-15T09:09:38;100969.28;;;-0.57;100.00
53758;BME280;39674;59.860;30.672;2022-11-15T09:12:30;101041.88;;;-0.10;100.00
53758;BME280;39674;59.860;30.672;2022-11-15T09:15:23;101005.56;;;-0.29;100.00
53758;BME280;39674;59.860;30.672;2022-11-15T09:18:23;101037.56;;;-0.08;100.00
53758;BME280;39674;59.860;30.672;2022-11-15T09:21:20;100948.53;;;-0.63;100.00
53758;BME280;39674;59.860;30.672;2022-11-15T09:24:12;100964.09;;;-0.57;100.00
53758;BME280;39674;59.860;30.672;2022-11-15T09:27:06;101004.69;;;-0.26;100.00
53758;BME280;39674;59.860;30.672;2022-11-15T09:29:57;101038.38;;;-0.06;100.00
53758;BME280;39674;59.860;30.672;2022-11-15T09:32:53;101094.59;;;0.24;100.00
53758;BME280;39674;59.860;30.672;2022-11-15T09:35:46;101031.50;;;-0.12;100.00
53758;BME280;39674;59.860;30.672;2022-11-15T09:38:40;101002.09;;;-0.31;100.00
53758;BME280;39674;59.860;30.672;2022-11-15T09:41:40;101099.78;;;0.24;100.00
53758;BME280;39674;59.860;30.672;2022-11-15T09:44:47;101051.38;;;-0.02;100.00
53758;BME280;39674;59.860;30.672;2022-11-15T09:48:18;100965.81;;;-0.56;100.00
53758;BME280;39674;59.860;30.672;2022-11-15T09:51:34;100968.41;;;-0.60;100.00
53758;BME280;39674;59.860;30.672;2022-11-15T09:54:23;101051.41;;;-0.11;100.00
53758;BME280;39674;59.860;30.672;2022-11-15T09:57:04;101028.94;;;-0.24;100.00
53758;BME280;39674;59.860;30.672;2022-11-15T09:59:54;101065.25;;;-0.07;100.00
53758;BME280;39674;59.860;30.672;2022-11-15T10:02:38;101066.09;;;-0.05;100.00
53758;BME280;39674;59.860;30.672;2022-11-15T10:05:16;101068.72;;;-0.08;100.00
53758;BME280;39674;59.860;30.672;2022-11-15T10:08:10;100963.22;;;-0.71;100.00
53758;BME280;39674;59.860;30.672;2022-11-15T10:10:44;100977.06;;;-0.58;100.00
53758;BME280;39674;59.860;30.672;2022-11-15T10:13:18;101018.53;;;-0.38;100.00
53758;BME280;39674;59.860;30.672;2022-11-15T10:15:57;100981.41;;;-0.53;100.00
53758;BME280;39674;59.860;30.672;2022-11-15T10:18:43;101056.59;;;-0.09;100.00
53758;BME280;39674;59.860;30.672;2022-11-15T10:21:40;101048.78;;;-0.12;100.00
53758;BME280;39674;59.860;30.672;2022-11-15T10:24:27;101051.41;;;-0.19;100.00
53758;BME280;39674;59.860;30.672;2022-11-15T10:27:11;100981.38;;;-0.62;100.00
53758;BME280;39674;59.860;30.672;2022-11-15T10:30:13;101064.38;;;-0.09;100.00
53758;BME280;39674;59.860;30.672;2022-11-15T10:32:52;100993.47;;;-0.58;100.00
53758;BME280;39674;59.860;30.672;2022-11-15T10:36:20;101124.06;;;0.20;100.00
53758;BME280;39674;59.860;30.672;2022-11-15T10:39:04;101111.97;;;0.02;100.00
53758;BME280;39674;59.860;30.672;2022-11-15T10:41:41;101027.22;;;-0.47;100.00
53758;BME280;39674;59.860;30.672;2022-11-15T10:44:43;101013.38;;;-0.58;100.00
53758;BME280;39674;59.860;30.672;2022-11-15T10:47:27;101126.69;;;0.12;100.00
53758;BME280;39674;59.860;30.672;2022-11-15T10:50:25;101054.03;;;-0.37;100.00
53758;BME280;39674;59.860;30.672;2022-11-15T10:53:29;101146.56;;;0.18;100.00
53758;BME280;39674;59.860;30.672;2022-11-15T10:56:14;101115.44;;;-0.05;100.00
53758;BME280;39674;59.860;30.672;2022-11-15T10:59:15;101028.09;;;-0.50;100.00
53758;BME280;39674;59.860;30.672;2022-11-15T11:01:57;100998.69;;;-0.75;100.00
53758;BME280;39674;59.860;30.672;2022-11-15T11:04:51;101056.59;;;-0.31;100.00
53758;BME280;39674;59.860;30.672;2022-11-15T11:07:29;101094.69;;;-0.13;100.00
53758;BME280;39674;59.860;30.672;2022-11-15T11:10:21;100989.19;;;-0.74;100.00
53758;BME280;39674;59.860;30.672;2022-11-15T11:13:25;101143.13;;;0.16;100.00
53758;BME280;39674;59.860;30.672;2022-11-15T11:16:38;101002.13;;;-0.71;100.00
53758;BME280;39674;59.860;30.672;2022-11-15T11:19:18;101161.31;;;0.16;100.00
53758;BME280;39674;59.860;30.672;2022-11-15T11:22:21;101058.34;;;-0.59;100.00
53758;BME280;39674;59.860;30.672;2022-11-15T11:25:28;101089.50;;;-0.38;100.00
53758;BME280;39674;59.860;30.672;2022-11-15T11:28:11;101102.50;;;-0.33;100.00
53758;BME280;39674;59.860;30.672;2022-11-15T11:31:00;101163.91;;;0.08;100.00
53758;BME280;39674;59.860;30.672;2022-11-15T11:33:53;101121.50;;;-0.15;100.00
53758;BME280;39674;59.860;30.672;2022-11-15T11:36:35;101113.72;;;-0.20;100.00
53758;BME280;39674;59.860;30.672;2022-11-15T11:39:26;101129.28;;;-0.14;100.00
53758;BME280;39674;59.860;30.672;2022-11-15T11:42:13;101187.28;;;0.14;100.00
53758;BME280;39674;59.860;30.672;2022-11-15T11:45:18;101055.75;;;-0.64;100.00
53758;BME280;39674;59.860;30.672;2022-11-15T11:48:40;101128.44;;;-0.14;100.00
53758;BME280;39674;59.860;30.672;2022-11-15T11:51:54;101042.78;;;-0.66;100.00
53758;BME280;39674;59.860;30.672;2022-11-15T11:55:11;101054.91;;;-0.66;100.00
53758;BME280;39674;59.860;30.672;2022-11-15T11:58:02;101128.44;;;-0.18;100.00
53758;BME280;39674;59.860;30.672;2022-11-15T12:01:20;101057.50;;;-0.71;100.00
53758;BME280;39674;59.860;30.672;2022-11-15T12:05:10;101048.81;;;-0.77;100.00
53758;BME280;39674;59.860;30.672;2022-11-15T12:12:43;101107.66;;;-0.42;100.00
53758;BME280;39674;59.860;30.672;2022-11-15T12:15:36;101092.09;;;-0.55;100.00
53758;BME280;39674;59.860;30.672;2022-11-15T12:18:38;101135.34;;;-0.32;100.00
53758;BME280;39674;59.860;30.672;2022-11-15T12:21:39;101057.47;;;-0.75;100.00
53758;BME280;39674;59.860;30.672;2022-11-15T12:24:20;101140.56;;;-0.29;100.00
53758;BME280;39674;59.860;30.672;2022-11-15T12:27:04;101191.63;;;0.00;100.00
53758;BME280;39674;59.860;30.672;2022-11-15T12:29:55;101144.84;;;-0.36;100.00
53758;BME280;39674;59.860;30.672;2022-11-15T12:32:49;101060.94;;;-0.86;100.00
53758;BME280;39674;59.860;30.672;2022-11-15T12:39:02;101069.56;;;-0.84;100.00
53758;BME280;39674;59.860;30.672;2022-11-15T12:45:27;101146.59;;;-0.35;100.00
53758;BME280;39674;59.860;30.672;2022-11-15T12:49:02;101064.41;;;-0.81;100.00
53758;BME280;39674;59.860;30.672;2022-11-15T12:52:31;101143.13;;;-0.41;100.00
53758;BME280;39674;59.860;30.672;2022-11-15T12:55:08;101178.63;;;-0.29;100.00
53758;BME280;39674;59.860;30.672;2022-11-15T12:58:29;101157.84;;;-0.31;100.00
53758;BME280;39674;59.860;30.672;2022-11-15T13:04:31;101156.09;;;-0.38;100.00
53758;BME280;39674;59.860;30.672;2022-11-15T13:07:06;101078.22;;;-0.85;100.00
53758;BME280;39674;59.860;30.672;2022-11-15T13:12:53;101221.91;;;-0.05;100.00
53758;BME280;39674;59.860;30.672;2022-11-15T13:15:37;101143.13;;;-0.52;100.00
53758;BME280;39674;59.860;30.672;2022-11-15T13:18:42;101114.56;;;-0.66;100.00
53758;BME280;39674;59.860;30.672;2022-11-15T13:21:24;101094.66;;;-0.84;100.00
53758;BME280;39674;59.860;30.672;2022-11-15T13:24:22;101182.94;;;-0.31;100.00
53758;BME280;39674;59.860;30.672;2022-11-15T13:26:52;101105.91;;;-0.87;100.00
53758;BME280;39674;59.860;30.672;2022-11-15T13:29:25;101118.88;;;-0.82;100.00
53758;BME280;39674;59.860;30.672;2022-11-15T13:32:01;101189.00;;;-0.34;100.00
53758;BME280;39674;59.860;30.672;2022-11-15T13:34:32;101116.28;;;-0.81;100.00
53758;BME280;39674;59.860;30.672;2022-11-15T13:37:31;101172.53;;;-0.50;100.00
53758;BME280;39674;59.860;30.672;2022-11-15T13:40:28;101229.72;;;-0.10;100.00
53758;BME280;39674;59.860;30.672;2022-11-15T13:43:35;101198.50;;;-0.36;100.00
53758;BME280;39674;59.860;30.672;2022-11-15T13:46:15;101199.38;;;-0.37;100.00
53758;BME280;39674;59.860;30.672;2022-11-15T13:48:54;101125.78;;;-0.83;100.00
53758;BME280;39674;59.860;30.672;2022-11-15T13:51:39;101208.03;;;-0.35;100.00
53758;BME280;39674;59.860;30.672;2022-11-15T13:54:20;101208.03;;;-0.32;100.00
53758;BME280;39674;59.860;30.672;2022-11-15T13:56:56;101162.13;;;-0.66;100.00
53758;BME280;39674;59.860;30.672;2022-11-15T13:59:28;101256.53;;;-0.06;100.00
53758;BME280;39674;59.860;30.672;2022-11-15T14:02:12;101232.28;;;-0.18;100.00
53758;BME280;39674;59.860;30.672;2022-11-15T14:04:47;101251.34;;;-0.09;100.00
53758;BME280;39674;59.860;30.672;2022-11-15T14:07:47;101262.59;;;-0.06;100.00
53758;BME280;39674;59.860;30.672;2022-11-15T14:10:28;101227.97;;;-0.29;100.00
53758;BME280;39674;59.860;30.672;2022-11-15T14:13:10;101261.72;;;-0.06;100.00
53758;BME280;39674;59.860;30.672;2022-11-15T14:15:54;101218.41;;;-0.32;100.00
53758;BME280;39674;59.860;30.672;2022-11-15T14:18:42;101285.13;;;0.03;100.00
53758;BME280;39674;59.860;30.672;2022-11-15T14:21:21;101192.41;;;-0.57;100.00
53758;BME280;39674;59.860;30.672;2022-11-15T14:23:54;101281.66;;;-0.02;100.00
53758;BME280;39674;59.860;30.672;2022-11-15T14:27:27;101199.38;;;-0.46;100.00
53758;BME280;39674;59.860;30.672;2022-11-15T14:30:06;101169.88;;;-0.76;100.00
53758;BME280;39674;59.860;30.672;2022-11-15T14:32:46;101171.63;;;-0.78;100.00
53758;BME280;39674;59.860;30.672;2022-11-15T14:35:25;101288.56;;;-0.09;100.00
53758;BME280;39674;59.860;30.672;2022-11-15T14:37:54;101253.91;;;-0.34;100.00
53758;BME280;39674;59.860;30.672;2022-11-15T14:40:29;101179.38;;;-0.80;100.00
53758;BME280;39674;59.860;30.672;2022-11-15T14:43:00;101263.41;;;-0.30;100.00
53758;BME280;39674;59.860;30.672;2022-11-15T14:45:32;101263.41;;;-0.30;100.00
53758;BME280;39674;59.860;30.672;2022-11-15T14:48:04;101250.41;;;-0.41;100.00
53758;BME280;39674;59.860;30.672;2022-11-15T14:50:35;101238.28;;;-0.53;100.00
53758;BME280;39674;59.860;30.672;2022-11-15T14:53:06;101255.59;;;-0.41;100.00
53758;BME280;39674;59.860;30.672;2022-11-15T14:55:43;101280.72;;;-0.30;100.00
53758;BME280;39674;59.860;30.672;2022-11-15T14:58:18;101219.22;;;-0.69;100.00
53758;BME280;39674;59.860;30.672;2022-11-15T15:00:50;101297.16;;;-0.30;100.00
53758;BME280;39674;59.860;30.672;2022-11-15T15:03:24;101336.16;;;-0.05;100.00
53758;BME280;39674;59.860;30.672;2022-11-15T15:05:53;101334.44;;;-0.09;100.00
53758;BME280;39674;59.860;30.672;2022-11-15T15:08:23;101265.94;;;-0.55;100.00
53758;BME280;39674;59.860;30.672;2022-11-15T15:10:53;101304.97;;;-0.33;100.00
53758;BME280;39674;59.860;30.672;2022-11-15T15:13:28;101272.00;;;-0.59;100.00
53758;BME280;39674;59.860;30.672;2022-11-15T15:15:59;101357.81;;;-0.03;100.00
53758;BME280;39674;59.860;30.672;2022-11-15T15:18:28;101281.53;;;-0.49;100.00
53758;BME280;39674;59.860;30.672;2022-11-15T15:20:58;101277.19;;;-0.56;100.00
53758;BME280;39674;59.860;30.672;2022-11-15T15:23:38;101365.63;;;-0.03;100.00
53758;BME280;39674;59.860;30.672;2022-11-15T15:26:09;101358.69;;;-0.07;100.00
53758;BME280;39674;59.860;30.672;2022-11-15T15:28:40;101322.22;;;-0.38;100.00
53758;BME280;39674;59.860;30.672;2022-11-15T15:31:09;101381.16;;;-0.06;100.00
53758;BME280;39674;59.860;30.672;2022-11-15T15:33:38;101374.25;;;-0.10;100.00
53758;BME280;39674;59.860;30.672;2022-11-15T15:36:14;101297.94;;;-0.56;100.00
53758;BME280;39674;59.860;30.672;2022-11-15T15:38:45;101384.63;;;-0.10;100.00
53758;BME280;39674;59.860;30.672;2022-11-15T15:41:15;101336.09;;;-0.39;100.00
53758;BME280;39674;59.860;30.672;2022-11-15T15:43:47;101316.13;;;-0.51;100.00
53758;BME280;39674;59.860;30.672;2022-11-15T15:46:19;101309.19;;;-0.52;100.00
53758;BME280;39674;59.860;30.672;2022-11-15T15:48:51;101353.38;;;-0.32;100.00
53758;BME280;39674;59.860;30.672;2022-11-15T15:51:20;101398.50;;;-0.05;100.00
53758;BME280;39674;59.860;30.672;2022-11-15T15:53:50;101398.50;;;-0.05;100.00
53758;BME280;39674;59.860;30.672;2022-11-15T15:56:24;101348.19;;;-0.32;100.00
53758;BME280;39674;59.860;30.672;2022-11-15T15:58:56;101381.16;;;-0.12;100.00
53758;BME280;39674;59.860;30.672;2022-11-15T16:01:28;101342.97;;;-0.38;100.00
53758;BME280;39674;59.860;30.672;2022-11-15T16:03:59;101397.66;;;-0.07;100.00
53758;BME280;39674;59.860;30.672;2022-11-15T16:06:36;101286.63;;;-0.72;100.00
53758;BME280;39674;59.860;30.672;2022-11-15T16:09:08;101386.38;;;-0.09;100.00
53758;BME280;39674;59.860;30.672;2022-11-15T16:11:40;101263.22;;;-0.83;100.00
53758;BME280;39674;59.860;30.672;2022-11-15T16:14:14;101258.06;;;-0.83;100.00
53758;BME280;39674;59.860;30.672;2022-11-15T16:16:42;101364.69;;;-0.21;100.00
53758;BME280;39674;59.860;30.672;2022-11-15T16:19:14;101307.47;;;-0.55;100.00
53758;BME280;39674;59.860;30.672;2022-11-15T16:21:44;101315.28;;;-0.49;100.00
53758;BME280;39674;59.860;30.672;2022-11-15T16:24:14;101301.38;;;-0.55;100.00
53758;BME280;39674;59.860;30.672;2022-11-15T16:26:43;101377.69;;;-0.11;100.00
53758;BME280;39674;59.860;30.672;2022-11-15T16:29:17;101242.47;;;-0.92;100.00
53758;BME280;39674;59.860;30.672;2022-11-15T16:31:46;101382.91;;;-0.08;100.00
53758;BME280;39674;59.860;30.672;2022-11-15T16:34:16;101393.31;;;-0.05;100.00
53758;BME280;39674;59.860;30.672;2022-11-15T16:36:47;101384.63;;;-0.10;100.00
53758;BME280;39674;59.860;30.672;2022-11-15T16:39:22;101398.53;;;-0.02;100.00
53758;BME280;39674;59.860;30.672;2022-11-15T16:41:54;101342.97;;;-0.38;100.00